sensor_id;sensor_type;location;lat;lon;timestamp;temperature;humidity
10838;DHT22;5472;53.048;8.640;2022-07-05T00:00:54;14.80;99.90
10838;DHT22;5472;53.048;8.640;2022-07-05T00:03:21;14.80;99.90
10838;DHT22;5472;53.048;8.640;2022-07-05T00:05:49;14.80;99.90
10838;DHT22;5472;53.048;8.640;2022-07-05T00:08:14;14.80;99.90
10838;DHT22;5472;53.048;8.640;2022-07-05T00:10:40;14.80;99.90
10838;DHT22;5472;53.048;8.640;2022-07-05T00:13:07;14.70;99.90
10838;DHT22;5472;53.048;8.640;2022-07-05T00:15:32;14.70;99.90
10838;DHT22;5472;53.048;8.640;2022-07-05T00:17:58;14.70;99.90
10838;DHT22;5472;53.048;8.640;2022-07-05T00:20:24;14.70;99.90
10838;DHT22;5472;53.048;8.640;2022-07-05T00:22:51;14.70;99.90
10838;DHT22;5472;53.048;8.640;2022-07-05T00:25:17;14.60;99.90
10838;DHT22;5472;53.048;8.640;2022-07-05T00:27:43;14.60;99.90
10838;DHT22;5472;53.048;8.640;2022-07-05T00:30:09;14.60;99.90
10838;DHT22;5472;53.048;8.640;2022-07-05T00:32:36;14.50;99.90
10838;DHT22;5472;53.048;8.640;2022-07-05T00:35:06;14.60;99.90
10838;DHT22;5472;53.048;8.640;2022-07-05T00:37:33;14.50;99.90
10838;DHT22;5472;53.048;8.640;2022-07-05T00:39:59;14.40;99.90
10838;DHT22;5472;53.048;8.640;2022-07-05T00:42:25;14.40;99.90
10838;DHT22;5472;53.048;8.640;2022-07-05T00:44:51;14.40;99.90
10838;DHT22;5472;53.048;8.640;2022-07-05T00:47:16;14.30;99.90
10838;DHT22;5472;53.048;8.640;2022-07-05T00:49:42;14.30;99.90
10838;DHT22;5472;53.048;8.640;2022-07-05T00:52:10;14.30;99.90
10838;DHT22;5472;53.048;8.640;2022-07-05T00:54:37;14.30;99.90
10838;DHT22;5472;53.048;8.640;2022-07-05T00:57:04;14.20;99.90
10838;DHT22;5472;53.048;8.640;2022-07-05T00:59:31;14.20;99.90
10838;DHT22;5472;53.048;8.640;2022-07-05T01:01:57;14.20;99.90
10838;DHT22;5472;53.048;8.640;2022-07-05T01:04:22;14.20;99.90
10838;DHT22;5472;53.048;8.640;2022-07-05T01:06:50;14.10;99.90
10838;DHT22;5472;53.048;8.640;2022-07-05T01:09:17;14.10;99.90
10838;DHT22;5472;53.048;8.640;2022-07-05T01:11:44;14.10;99.90
10838;DHT22;5472;53.048;8.640;2022-07-05T01:14:11;14.00;99.90
10838;DHT22;5472;53.048;8.640;2022-07-05T01:16:38;14.00;99.90
10838;DHT22;5472;53.048;8.640;2022-07-05T01:19:05;14.00;99.90
10838;DHT22;5472;53.048;8.640;2022-07-05T01:21:35;14.00;99.90
10838;DHT22;5472;53.048;8.640;2022-07-05T01:24:03;13.90;99.90
10838;DHT22;5472;53.048;8.640;2022-07-05T01:26:29;13.90;99.90
10838;DHT22;5472;53.048;8.640;2022-07-05T01:28:55;13.80;99.90
10838;DHT22;5472;53.048;8.640;2022-07-05T01:31:21;13.80;99.90
10838;DHT22;5472;53.048;8.640;2022-07-05T01:33:47;13.80;99.90
10838;DHT22;5472;53.048;8.640;2022-07-05T01:36:13;13.70;99.90
10838;DHT22;5472;53.048;8.640;2022-07-05T01:38:39;13.70;99.90
10838;DHT22;5472;53.048;8.640;2022-07-05T01:41:05;13.70;99.90
10838;DHT22;5472;53.048;8.640;2022-07-05T01:43:31;13.60;99.90
10838;DHT22;5472;53.048;8.640;2022-07-05T01:45:58;13.60;99.90
10838;DHT22;5472;53.048;8.640;2022-07-05T01:48:28;13.50;99.90
10838;DHT22;5472;53.048;8.640;2022-07-05T01:51:00;13.50;99.90
10838;DHT22;5472;53.048;8.640;2022-07-05T01:53:31;13.40;99.90
10838;DHT22;5472;53.048;8.640;2022-07-05T01:56:01;13.50;99.90
10838;DHT22;5472;53.048;8.640;2022-07-05T01:58:28;13.50;99.90
10838;DHT22;5472;53.048;8.640;2022-07-05T02:00:55;13.40;99.90
10838;DHT22;5472;53.048;8.640;2022-07-05T02:03:22;13.40;99.90
10838;DHT22;5472;53.048;8.640;2022-07-05T02:05:50;13.30;99.90
10838;DHT22;5472;53.048;8.640;2022-07-05T02:08:17;13.30;99.90
10838;DHT22;5472;53.048;8.640;2022-07-05T02:10:43;13.30;99.90
10838;DHT22;5472;53.048;8.640;2022-07-05T02:13:09;13.20;99.90
10838;DHT22;5472;53.048;8.640;2022-07-05T02:15:39;13.20;99.90
10838;DHT22;5472;53.048;8.640;2022-07-05T02:18:06;13.10;99.90
10838;DHT22;5472;53.048;8.640;2022-07-05T02:20:32;13.10;99.90
10838;DHT22;5472;53.048;8.640;2022-07-05T02:22:59;13.10;99.90
10838;DHT22;5472;53.048;8.640;2022-07-05T02:25:25;13.10;99.90
10838;DHT22;5472;53.048;8.640;2022-07-05T02:27:52;13.10;99.90
10838;DHT22;5472;53.048;8.640;2022-07-05T02:30:18;13.10;99.90
10838;DHT22;5472;53.048;8.640;2022-07-05T02:32:44;13.00;99.90
10838;DHT22;5472;53.048;8.640;2022-07-05T02:35:11;13.00;99.90
10838;DHT22;5472;53.048;8.640;2022-07-05T02:37:37;13.00;99.90
10838;DHT22;5472;53.048;8.640;2022-07-05T02:40:06;12.90;99.90
10838;DHT22;5472;53.048;8.640;2022-07-05T02:42:32;12.90;99.90
10838;DHT22;5472;53.048;8.640;2022-07-05T02:44:58;12.90;99.90
10838;DHT22;5472;53.048;8.640;2022-07-05T02:47:24;12.90;99.90
10838;DHT22;5472;53.048;8.640;2022-07-05T02:49:49;12.90;99.90
10838;DHT22;5472;53.048;8.640;2022-07-05T02:52:15;12.90;99.90
10838;DHT22;5472;53.048;8.640;2022-07-05T02:54:41;12.90;99.90
10838;DHT22;5472;53.048;8.640;2022-07-05T02:57:06;12.80;99.90
10838;DHT22;5472;53.048;8.640;2022-07-05T02:59:32;12.80;99.90
10838;DHT22;5472;53.048;8.640;2022-07-05T03:01:57;12.80;99.90
10838;DHT22;5472;53.048;8.640;2022-07-05T03:04:23;12.80;99.90
10838;DHT22;5472;53.048;8.640;2022-07-05T03:06:49;12.80;99.90
10838;DHT22;5472;53.048;8.640;2022-07-05T03:09:16;12.70;99.90
10838;DHT22;5472;53.048;8.640;2022-07-05T03:11:41;12.70;99.90
10838;DHT22;5472;53.048;8.640;2022-07-05T03:14:08;12.70;99.90
10838;DHT22;5472;53.048;8.640;2022-07-05T03:16:35;12.70;99.90
10838;DHT22;5472;53.048;8.640;2022-07-05T03:19:01;12.70;99.90
10838;DHT22;5472;53.048;8.640;2022-07-05T03:21:26;12.70;99.90
10838;DHT22;5472;53.048;8.640;2022-07-05T03:23:52;12.70;99.90
10838;DHT22;5472;53.048;8.640;2022-07-05T03:26:18;12.70;99.90
10838;DHT22;5472;53.048;8.640;2022-07-05T03:28:43;12.80;99.90
10838;DHT22;5472;53.048;8.640;2022-07-05T03:31:09;12.70;99.90
10838;DHT22;5472;53.048;8.640;2022-07-05T03:33:34;12.70;99.90
10838;DHT22;5472;53.048;8.640;2022-07-05T03:36:00;12.80;99.90
10838;DHT22;5472;53.048;8.640;2022-07-05T03:38:26;12.70;99.90
10838;DHT22;5472;53.048;8.640;2022-07-05T03:40:52;12.70;99.90
10838;DHT22;5472;53.048;8.640;2022-07-05T03:43:18;12.70;99.90
10838;DHT22;5472;53.048;8.640;2022-07-05T03:45:44;12.70;99.90
10838;DHT22;5472;53.048;8.640;2022-07-05T03:48:09;12.70;99.90
10838;DHT22;5472;53.048;8.640;2022-07-05T03:50:36;12.70;99.90
10838;DHT22;5472;53.048;8.640;2022-07-05T03:53:02;12.70;99.90
10838;DHT22;5472;53.048;8.640;2022-07-05T03:55:27;12.70;99.90
10838;DHT22;5472;53.048;8.640;2022-07-05T03:57:54;12.70;99.90
10838;DHT22;5472;53.048;8.640;2022-07-05T04:00:20;12.70;99.90
10838;DHT22;5472;53.048;8.640;2022-07-05T04:02:46;12.70;99.90
10838;DHT22;5472;53.048;8.640;2022-07-05T04:05:11;12.70;99.90
10838;DHT22;5472;53.048;8.640;2022-07-05T04:07:50;12.70;99.90
10838;DHT22;5472;53.048;8.640;2022-07-05T04:10:17;12.80;99.90
10838;DHT22;5472;53.048;8.640;2022-07-05T04:12:42;12.80;99.90
10838;DHT22;5472;53.048;8.640;2022-07-05T04:15:09;12.80;99.90
10838;DHT22;5472;53.048;8.640;2022-07-05T04:17:34;12.90;99.90
10838;DHT22;5472;53.048;8.640;2022-07-05T04:20:00;12.90;99.90
10838;DHT22;5472;53.048;8.640;2022-07-05T04:22:25;12.90;99.90
10838;DHT22;5472;53.048;8.640;2022-07-05T04:24:51;13.00;99.90
10838;DHT22;5472;53.048;8.640;2022-07-05T04:27:35;13.00;99.90
10838;DHT22;5472;53.048;8.640;2022-07-05T04:30:01;13.10;99.90
10838;DHT22;5472;53.048;8.640;2022-07-05T04:32:27;13.10;99.90
10838;DHT22;5472;53.048;8.640;2022-07-05T04:34:53;13.20;99.90
10838;DHT22;5472;53.048;8.640;2022-07-05T04:37:19;13.30;99.90
10838;DHT22;5472;53.048;8.640;2022-07-05T04:39:44;13.30;99.90
10838;DHT22;5472;53.048;8.640;2022-07-05T04:42:10;13.40;99.90
10838;DHT22;5472;53.048;8.640;2022-07-05T04:44:36;13.60;99.90
10838;DHT22;5472;53.048;8.640;2022-07-05T04:47:01;13.60;99.90
10838;DHT22;5472;53.048;8.640;2022-07-05T04:49:27;13.80;99.90
10838;DHT22;5472;53.048;8.640;2022-07-05T04:51:53;13.80;99.90
10838;DHT22;5472;53.048;8.640;2022-07-05T04:54:18;13.90;99.90
10838;DHT22;5472;53.048;8.640;2022-07-05T04:56:44;14.10;99.90
10838;DHT22;5472;53.048;8.640;2022-07-05T04:59:10;14.10;99.90
10838;DHT22;5472;53.048;8.640;2022-07-05T05:01:35;14.30;99.90
10838;DHT22;5472;53.048;8.640;2022-07-05T05:04:01;14.40;99.90
10838;DHT22;5472;53.048;8.640;2022-07-05T05:06:26;14.50;99.90
10838;DHT22;5472;53.048;8.640;2022-07-05T05:08:52;14.60;99.90
10838;DHT22;5472;53.048;8.640;2022-07-05T05:11:18;14.80;99.90
10838;DHT22;5472;53.048;8.640;2022-07-05T05:13:43;14.90;99.90
10838;DHT22;5472;53.048;8.640;2022-07-05T05:16:11;14.90;99.90
10838;DHT22;5472;53.048;8.640;2022-07-05T05:18:36;15.10;99.90
10838;DHT22;5472;53.048;8.640;2022-07-05T05:21:02;15.20;99.90
10838;DHT22;5472;53.048;8.640;2022-07-05T05:23:28;15.40;99.90
10838;DHT22;5472;53.048;8.640;2022-07-05T05:25:53;15.50;99.90
10838;DHT22;5472;53.048;8.640;2022-07-05T05:28:19;15.70;99.90
10838;DHT22;5472;53.048;8.640;2022-07-05T05:30:45;15.80;99.90
10838;DHT22;5472;53.048;8.640;2022-07-05T05:33:11;16.00;99.90
10838;DHT22;5472;53.048;8.640;2022-07-05T05:35:37;16.10;99.90
10838;DHT22;5472;53.048;8.640;2022-07-05T05:38:02;16.10;99.90
10838;DHT22;5472;53.048;8.640;2022-07-05T05:40:28;16.20;99.90
10838;DHT22;5472;53.048;8.640;2022-07-05T05:42:54;16.30;99.90
10838;DHT22;5472;53.048;8.640;2022-07-05T05:45:21;16.40;99.90
10838;DHT22;5472;53.048;8.640;2022-07-05T05:47:49;16.60;99.90
10838;DHT22;5472;53.048;8.640;2022-07-05T05:50:19;16.70;99.90
10838;DHT22;5472;53.048;8.640;2022-07-05T05:52:44;16.80;99.90
10838;DHT22;5472;53.048;8.640;2022-07-05T05:55:10;16.90;99.90
10838;DHT22;5472;53.048;8.640;2022-07-05T05:57:35;17.10;99.90
10838;DHT22;5472;53.048;8.640;2022-07-05T06:00:03;17.20;99.90
10838;DHT22;5472;53.048;8.640;2022-07-05T06:02:29;17.30;99.90
10838;DHT22;5472;53.048;8.640;2022-07-05T06:04:55;17.30;99.90
10838;DHT22;5472;53.048;8.640;2022-07-05T06:07:20;17.30;99.90
10838;DHT22;5472;53.048;8.640;2022-07-05T06:09:46;17.40;99.90
10838;DHT22;5472;53.048;8.640;2022-07-05T06:12:12;17.50;99.90
10838;DHT22;5472;53.048;8.640;2022-07-05T06:14:38;17.50;99.90
10838;DHT22;5472;53.048;8.640;2022-07-05T06:17:06;17.60;99.90
10838;DHT22;5472;53.048;8.640;2022-07-05T06:19:31;17.80;99.90
10838;DHT22;5472;53.048;8.640;2022-07-05T06:21:57;17.70;99.90
10838;DHT22;5472;53.048;8.640;2022-07-05T06:24:22;17.80;99.90
10838;DHT22;5472;53.048;8.640;2022-07-05T06:26:48;17.80;99.90
10838;DHT22;5472;53.048;8.640;2022-07-05T06:29:13;17.80;99.90
10838;DHT22;5472;53.048;8.640;2022-07-05T06:31:39;17.90;99.90
10838;DHT22;5472;53.048;8.640;2022-07-05T06:34:05;18.00;99.90
10838;DHT22;5472;53.048;8.640;2022-07-05T06:36:30;18.10;99.90
10838;DHT22;5472;53.048;8.640;2022-07-05T06:38:56;18.10;99.90
10838;DHT22;5472;53.048;8.640;2022-07-05T06:41:22;18.20;99.90
10838;DHT22;5472;53.048;8.640;2022-07-05T06:43:47;18.10;99.90
10838;DHT22;5472;53.048;8.640;2022-07-05T06:46:13;18.20;99.90
10838;DHT22;5472;53.048;8.640;2022-07-05T06:48:38;18.30;99.90
10838;DHT22;5472;53.048;8.640;2022-07-05T06:51:06;18.40;99.90
10838;DHT22;5472;53.048;8.640;2022-07-05T06:53:32;18.40;99.90
10838;DHT22;5472;53.048;8.640;2022-07-05T06:55:57;18.40;99.90
10838;DHT22;5472;53.048;8.640;2022-07-05T06:58:24;18.50;99.90
10838;DHT22;5472;53.048;8.640;2022-07-05T07:00:49;18.70;99.90
10838;DHT22;5472;53.048;8.640;2022-07-05T07:03:15;18.70;99.90
10838;DHT22;5472;53.048;8.640;2022-07-05T07:05:42;18.90;99.90
10838;DHT22;5472;53.048;8.640;2022-07-05T07:08:08;19.00;99.90
10838;DHT22;5472;53.048;8.640;2022-07-05T07:10:52;18.90;99.90
10838;DHT22;5472;53.048;8.640;2022-07-05T07:13:18;19.00;99.90
10838;DHT22;5472;53.048;8.640;2022-07-05T07:15:45;19.10;99.90
10838;DHT22;5472;53.048;8.640;2022-07-05T07:18:12;19.20;99.90
10838;DHT22;5472;53.048;8.640;2022-07-05T07:20:38;19.20;99.90
10838;DHT22;5472;53.048;8.640;2022-07-05T07:23:03;18.90;99.90
10838;DHT22;5472;53.048;8.640;2022-07-05T07:25:29;19.00;99.90
10838;DHT22;5472;53.048;8.640;2022-07-05T07:27:55;19.20;99.90
10838;DHT22;5472;53.048;8.640;2022-07-05T07:30:27;19.40;99.90
10838;DHT22;5472;53.048;8.640;2022-07-05T07:32:53;19.50;99.90
10838;DHT22;5472;53.048;8.640;2022-07-05T07:35:19;19.50;99.90
10838;DHT22;5472;53.048;8.640;2022-07-05T07:37:45;19.40;99.90
10838;DHT22;5472;53.048;8.640;2022-07-05T07:40:10;19.40;99.90
10838;DHT22;5472;53.048;8.640;2022-07-05T07:42:36;19.50;99.90
10838;DHT22;5472;53.048;8.640;2022-07-05T07:45:03;19.40;99.90
10838;DHT22;5472;53.048;8.640;2022-07-05T07:47:32;19.70;99.90
10838;DHT22;5472;53.048;8.640;2022-07-05T07:49:58;19.80;99.90
10838;DHT22;5472;53.048;8.640;2022-07-05T07:52:24;19.90;99.90
10838;DHT22;5472;53.048;8.640;2022-07-05T07:54:50;19.70;99.90
10838;DHT22;5472;53.048;8.640;2022-07-05T07:57:16;19.70;99.90
10838;DHT22;5472;53.048;8.640;2022-07-05T07:59:41;19.80;99.90
10838;DHT22;5472;53.048;8.640;2022-07-05T08:02:07;20.00;99.90
10838;DHT22;5472;53.048;8.640;2022-07-05T08:04:33;20.00;99.90
10838;DHT22;5472;53.048;8.640;2022-07-05T08:06:59;20.20;99.90
10838;DHT22;5472;53.048;8.640;2022-07-05T08:09:24;20.30;99.90
10838;DHT22;5472;53.048;8.640;2022-07-05T08:11:50;20.40;99.90
10838;DHT22;5472;53.048;8.640;2022-07-05T08:14:17;20.40;99.90
10838;DHT22;5472;53.048;8.640;2022-07-05T08:16:43;20.40;99.90
10838;DHT22;5472;53.048;8.640;2022-07-05T08:19:11;20.40;99.90
10838;DHT22;5472;53.048;8.640;2022-07-05T08:21:55;20.30;99.20
10838;DHT22;5472;53.048;8.640;2022-07-05T08:24:20;20.50;99.40
10838;DHT22;5472;53.048;8.640;2022-07-05T08:26:46;20.70;97.00
10838;DHT22;5472;53.048;8.640;2022-07-05T08:29:12;20.80;96.90
10838;DHT22;5472;53.048;8.640;2022-07-05T08:31:44;20.70;96.90
10838;DHT22;5472;53.048;8.640;2022-07-05T08:34:11;20.60;97.40
10838;DHT22;5472;53.048;8.640;2022-07-05T08:36:37;20.70;95.10
10838;DHT22;5472;53.048;8.640;2022-07-05T08:39:04;20.60;94.60
10838;DHT22;5472;53.048;8.640;2022-07-05T08:41:32;20.50;96.40
10838;DHT22;5472;53.048;8.640;2022-07-05T08:44:00;20.30;99.30
10838;DHT22;5472;53.048;8.640;2022-07-05T08:46:30;20.00;99.50
10838;DHT22;5472;53.048;8.640;2022-07-05T08:48:59;19.80;99.90
10838;DHT22;5472;53.048;8.640;2022-07-05T08:51:25;19.80;99.90
10838;DHT22;5472;53.048;8.640;2022-07-05T08:53:53;19.60;99.90
10838;DHT22;5472;53.048;8.640;2022-07-05T08:56:19;19.80;99.90
10838;DHT22;5472;53.048;8.640;2022-07-05T08:58:45;20.20;99.90
10838;DHT22;5472;53.048;8.640;2022-07-05T09:01:12;20.30;99.90
10838;DHT22;5472;53.048;8.640;2022-07-05T09:03:49;20.40;97.20
10838;DHT22;5472;53.048;8.640;2022-07-05T09:06:24;20.60;94.90
10838;DHT22;5472;53.048;8.640;2022-07-05T09:08:59;20.80;94.40
10838;DHT22;5472;53.048;8.640;2022-07-05T09:14:03;20.90;94.60
10838;DHT22;5472;53.048;8.640;2022-07-05T09:16:30;20.90;95.00
10838;DHT22;5472;53.048;8.640;2022-07-05T09:19:03;20.70;96.50
10838;DHT22;5472;53.048;8.640;2022-07-05T09:21:29;20.70;97.20
10838;DHT22;5472;53.048;8.640;2022-07-05T09:24:06;20.80;96.20
10838;DHT22;5472;53.048;8.640;2022-07-05T09:26:39;20.80;96.00
10838;DHT22;5472;53.048;8.640;2022-07-05T09:31:43;20.50;96.90
10838;DHT22;5472;53.048;8.640;2022-07-05T09:37:01;21.00;97.20
10838;DHT22;5472;53.048;8.640;2022-07-05T09:44:48;20.90;96.20
10838;DHT22;5472;53.048;8.640;2022-07-05T09:47:20;21.00;96.50
10838;DHT22;5472;53.048;8.640;2022-07-05T09:49:57;21.00;95.30
10838;DHT22;5472;53.048;8.640;2022-07-05T09:52:30;20.90;96.20
10838;DHT22;5472;53.048;8.640;2022-07-05T09:55:10;20.90;97.10
10838;DHT22;5472;53.048;8.640;2022-07-05T09:57:41;20.80;96.40
10838;DHT22;5472;53.048;8.640;2022-07-05T10:02:50;20.80;96.50
10838;DHT22;5472;53.048;8.640;2022-07-05T10:05:21;20.80;96.30
10838;DHT22;5472;53.048;8.640;2022-07-05T10:07:49;21.00;96.20
10838;DHT22;5472;53.048;8.640;2022-07-05T10:10:18;21.10;96.50
10838;DHT22;5472;53.048;8.640;2022-07-05T10:12:45;21.10;94.70
10838;DHT22;5472;53.048;8.640;2022-07-05T10:15:14;21.10;94.90
10838;DHT22;5472;53.048;8.640;2022-07-05T10:17:44;21.10;93.90
10838;DHT22;5472;53.048;8.640;2022-07-05T10:20:28;21.00;94.80
10838;DHT22;5472;53.048;8.640;2022-07-05T10:22:56;21.10;95.20
10838;DHT22;5472;53.048;8.640;2022-07-05T10:25:23;21.10;95.40
10838;DHT22;5472;53.048;8.640;2022-07-05T10:27:50;21.00;95.10
10838;DHT22;5472;53.048;8.640;2022-07-05T10:30:20;20.80;96.00
10838;DHT22;5472;53.048;8.640;2022-07-05T10:32:48;20.80;96.40
10838;DHT22;5472;53.048;8.640;2022-07-05T10:35:16;20.70;97.30
10838;DHT22;5472;53.048;8.640;2022-07-05T10:37:43;20.70;94.90
10838;DHT22;5472;53.048;8.640;2022-07-05T10:40:10;20.80;95.30
10838;DHT22;5472;53.048;8.640;2022-07-05T10:42:43;21.10;94.80
10838;DHT22;5472;53.048;8.640;2022-07-05T10:45:35;21.20;94.30
10838;DHT22;5472;53.048;8.640;2022-07-05T10:48:19;21.00;94.20
10838;DHT22;5472;53.048;8.640;2022-07-05T10:50:52;20.90;95.30
10838;DHT22;5472;53.048;8.640;2022-07-05T10:53:22;20.90;95.80
10838;DHT22;5472;53.048;8.640;2022-07-05T11:00:42;20.80;95.80
10838;DHT22;5472;53.048;8.640;2022-07-05T11:03:36;20.70;96.00
10838;DHT22;5472;53.048;8.640;2022-07-05T11:06:04;20.70;95.60
10838;DHT22;5472;53.048;8.640;2022-07-05T11:08:30;20.90;95.90
10838;DHT22;5472;53.048;8.640;2022-07-05T11:11:14;21.00;95.90
10838;DHT22;5472;53.048;8.640;2022-07-05T11:13:41;21.20;95.50
10838;DHT22;5472;53.048;8.640;2022-07-05T11:16:22;21.30;93.90
10838;DHT22;5472;53.048;8.640;2022-07-05T11:18:53;21.20;94.70
10838;DHT22;5472;53.048;8.640;2022-07-05T11:21:20;21.10;94.80
10838;DHT22;5472;53.048;8.640;2022-07-05T11:23:47;21.30;95.10
10838;DHT22;5472;53.048;8.640;2022-07-05T11:26:16;21.30;95.00
10838;DHT22;5472;53.048;8.640;2022-07-05T11:28:46;21.40;95.60
10838;DHT22;5472;53.048;8.640;2022-07-05T11:31:42;21.70;95.60
10838;DHT22;5472;53.048;8.640;2022-07-05T11:34:14;21.60;94.90
10838;DHT22;5472;53.048;8.640;2022-07-05T11:36:40;21.50;95.00
10838;DHT22;5472;53.048;8.640;2022-07-05T11:39:08;21.60;96.10
10838;DHT22;5472;53.048;8.640;2022-07-05T11:41:37;21.70;95.30
10838;DHT22;5472;53.048;8.640;2022-07-05T11:44:03;21.80;95.30
10838;DHT22;5472;53.048;8.640;2022-07-05T11:46:29;21.60;94.10
10838;DHT22;5472;53.048;8.640;2022-07-05T11:48:58;21.40;93.20
10838;DHT22;5472;53.048;8.640;2022-07-05T11:51:24;21.40;93.70
10838;DHT22;5472;53.048;8.640;2022-07-05T11:53:50;21.40;93.40
10838;DHT22;5472;53.048;8.640;2022-07-05T11:56:16;21.40;93.80
10838;DHT22;5472;53.048;8.640;2022-07-05T11:58:41;21.50;94.20
10838;DHT22;5472;53.048;8.640;2022-07-05T12:01:07;21.60;93.50
10838;DHT22;5472;53.048;8.640;2022-07-05T12:03:33;21.80;94.00
10838;DHT22;5472;53.048;8.640;2022-07-05T12:06:12;21.90;94.90
10838;DHT22;5472;53.048;8.640;2022-07-05T12:08:38;22.10;94.50
10838;DHT22;5472;53.048;8.640;2022-07-05T12:11:04;22.10;93.70
10838;DHT22;5472;53.048;8.640;2022-07-05T12:13:50;22.20;91.60
10838;DHT22;5472;53.048;8.640;2022-07-05T12:16:16;22.10;90.00
10838;DHT22;5472;53.048;8.640;2022-07-05T12:21:13;22.00;89.60
10838;DHT22;5472;53.048;8.640;2022-07-05T12:23:41;22.00;90.60
10838;DHT22;5472;53.048;8.640;2022-07-05T12:26:08;21.90;90.80
10838;DHT22;5472;53.048;8.640;2022-07-05T12:28:35;21.70;90.90
10838;DHT22;5472;53.048;8.640;2022-07-05T12:31:15;21.70;83.50
10838;DHT22;5472;53.048;8.640;2022-07-05T12:33:41;21.60;83.70
10838;DHT22;5472;53.048;8.640;2022-07-05T12:36:11;21.90;86.60
10838;DHT22;5472;53.048;8.640;2022-07-05T12:38:37;22.00;88.40
10838;DHT22;5472;53.048;8.640;2022-07-05T12:41:03;21.90;90.50
10838;DHT22;5472;53.048;8.640;2022-07-05T12:43:29;21.60;92.40
10838;DHT22;5472;53.048;8.640;2022-07-05T12:46:06;21.40;93.80
10838;DHT22;5472;53.048;8.640;2022-07-05T12:48:34;21.30;94.10
10838;DHT22;5472;53.048;8.640;2022-07-05T12:51:00;21.40;94.80
10838;DHT22;5472;53.048;8.640;2022-07-05T12:53:27;21.60;92.60
10838;DHT22;5472;53.048;8.640;2022-07-05T12:56:11;21.80;91.60
10838;DHT22;5472;53.048;8.640;2022-07-05T12:58:59;21.90;91.80
10838;DHT22;5472;53.048;8.640;2022-07-05T13:01:32;22.10;91.20
10838;DHT22;5472;53.048;8.640;2022-07-05T13:09:35;22.40;83.10
10838;DHT22;5472;53.048;8.640;2022-07-05T13:12:20;22.30;81.20
10838;DHT22;5472;53.048;8.640;2022-07-05T13:14:52;22.30;82.60
10838;DHT22;5472;53.048;8.640;2022-07-05T13:17:22;22.20;82.80
10838;DHT22;5472;53.048;8.640;2022-07-05T13:19:51;22.20;83.10
10838;DHT22;5472;53.048;8.640;2022-07-05T13:22:17;22.20;84.20
10838;DHT22;5472;53.048;8.640;2022-07-05T13:24:43;22.30;84.40
10838;DHT22;5472;53.048;8.640;2022-07-05T13:27:10;22.30;89.60
10838;DHT22;5472;53.048;8.640;2022-07-05T13:29:37;22.10;90.60
10838;DHT22;5472;53.048;8.640;2022-07-05T13:32:03;21.80;90.80
10838;DHT22;5472;53.048;8.640;2022-07-05T13:34:29;21.70;91.20
10838;DHT22;5472;53.048;8.640;2022-07-05T13:36:56;21.50;92.00
10838;DHT22;5472;53.048;8.640;2022-07-05T13:39:23;21.50;92.30
10838;DHT22;5472;53.048;8.640;2022-07-05T13:41:53;21.60;92.80
10838;DHT22;5472;53.048;8.640;2022-07-05T13:44:19;21.60;91.80
10838;DHT22;5472;53.048;8.640;2022-07-05T13:46:45;21.50;91.70
10838;DHT22;5472;53.048;8.640;2022-07-05T13:49:10;21.40;91.60
10838;DHT22;5472;53.048;8.640;2022-07-05T13:51:36;21.30;92.00
10838;DHT22;5472;53.048;8.640;2022-07-05T13:54:03;21.50;91.90
10838;DHT22;5472;53.048;8.640;2022-07-05T13:56:29;21.80;90.10
10838;DHT22;5472;53.048;8.640;2022-07-05T13:58:55;22.20;89.50
10838;DHT22;5472;53.048;8.640;2022-07-05T14:01:21;22.70;86.00
10838;DHT22;5472;53.048;8.640;2022-07-05T14:03:53;22.90;83.70
10838;DHT22;5472;53.048;8.640;2022-07-05T14:06:19;23.00;79.20
10838;DHT22;5472;53.048;8.640;2022-07-05T14:08:45;22.60;79.30
10838;DHT22;5472;53.048;8.640;2022-07-05T14:11:11;22.60;81.60
10838;DHT22;5472;53.048;8.640;2022-07-05T14:13:38;22.70;82.80
10838;DHT22;5472;53.048;8.640;2022-07-05T14:16:04;23.00;84.10
10838;DHT22;5472;53.048;8.640;2022-07-05T14:18:31;23.00;80.50
10838;DHT22;5472;53.048;8.640;2022-07-05T14:20:57;22.90;81.80
10838;DHT22;5472;53.048;8.640;2022-07-05T14:23:22;22.60;81.30
10838;DHT22;5472;53.048;8.640;2022-07-05T14:25:48;22.50;79.40
10838;DHT22;5472;53.048;8.640;2022-07-05T14:28:15;22.70;81.20
10838;DHT22;5472;53.048;8.640;2022-07-05T14:30:45;22.70;78.80
10838;DHT22;5472;53.048;8.640;2022-07-05T14:33:12;22.70;81.00
10838;DHT22;5472;53.048;8.640;2022-07-05T14:35:39;22.60;81.40
10838;DHT22;5472;53.048;8.640;2022-07-05T14:38:06;22.80;80.00
10838;DHT22;5472;53.048;8.640;2022-07-05T14:40:32;22.70;79.40
10838;DHT22;5472;53.048;8.640;2022-07-05T14:42:59;22.60;74.10
10838;DHT22;5472;53.048;8.640;2022-07-05T14:45:25;22.50;74.50
10838;DHT22;5472;53.048;8.640;2022-07-05T14:47:52;22.30;77.90
10838;DHT22;5472;53.048;8.640;2022-07-05T14:50:18;22.10;95.40
10838;DHT22;5472;53.048;8.640;2022-07-05T14:52:45;21.80;99.20
10838;DHT22;5472;53.048;8.640;2022-07-05T14:55:11;21.40;99.90
10838;DHT22;5472;53.048;8.640;2022-07-05T14:57:38;21.20;99.90
10838;DHT22;5472;53.048;8.640;2022-07-05T15:00:09;21.00;99.90
10838;DHT22;5472;53.048;8.640;2022-07-05T15:02:36;21.00;99.90
10838;DHT22;5472;53.048;8.640;2022-07-05T15:05:03;21.00;99.90
10838;DHT22;5472;53.048;8.640;2022-07-05T15:07:29;20.80;99.90
10838;DHT22;5472;53.048;8.640;2022-07-05T15:09:55;20.60;99.90
10838;DHT22;5472;53.048;8.640;2022-07-05T15:12:21;20.60;99.90
10838;DHT22;5472;53.048;8.640;2022-07-05T15:14:46;20.60;99.90
10838;DHT22;5472;53.048;8.640;2022-07-05T15:17:12;20.80;99.90
10838;DHT22;5472;53.048;8.640;2022-07-05T15:19:38;20.60;99.90
10838;DHT22;5472;53.048;8.640;2022-07-05T15:22:06;20.60;99.90
10838;DHT22;5472;53.048;8.640;2022-07-05T15:24:32;20.60;99.90
10838;DHT22;5472;53.048;8.640;2022-07-05T15:26:58;20.60;99.90
10838;DHT22;5472;53.048;8.640;2022-07-05T15:29:24;20.70;99.90
10838;DHT22;5472;53.048;8.640;2022-07-05T15:31:50;20.70;99.90
10838;DHT22;5472;53.048;8.640;2022-07-05T15:34:16;20.80;99.90
10838;DHT22;5472;53.048;8.640;2022-07-05T15:36:42;20.80;99.90
10838;DHT22;5472;53.048;8.640;2022-07-05T15:39:08;20.90;99.90
10838;DHT22;5472;53.048;8.640;2022-07-05T15:41:37;21.00;99.90
10838;DHT22;5472;53.048;8.640;2022-07-05T15:44:03;21.00;99.90
10838;DHT22;5472;53.048;8.640;2022-07-05T15:46:29;21.00;99.90
10838;DHT22;5472;53.048;8.640;2022-07-05T15:49:16;21.10;99.90
10838;DHT22;5472;53.048;8.640;2022-07-05T15:51:41;20.90;99.90
10838;DHT22;5472;53.048;8.640;2022-07-05T15:54:07;20.90;99.90
10838;DHT22;5472;53.048;8.640;2022-07-05T15:56:33;20.70;99.90
10838;DHT22;5472;53.048;8.640;2022-07-05T15:58:58;20.60;99.90
10838;DHT22;5472;53.048;8.640;2022-07-05T16:01:24;20.50;99.90
10838;DHT22;5472;53.048;8.640;2022-07-05T16:03:49;20.60;99.90
10838;DHT22;5472;53.048;8.640;2022-07-05T16:06:15;20.50;99.90
10838;DHT22;5472;53.048;8.640;2022-07-05T16:08:41;20.60;99.90
10838;DHT22;5472;53.048;8.640;2022-07-05T16:11:06;20.70;99.90
10838;DHT22;5472;53.048;8.640;2022-07-05T16:13:32;20.70;99.90
10838;DHT22;5472;53.048;8.640;2022-07-05T16:15:57;20.70;99.90